PAFR METAR and TAF weather

Enter ICAO airport designator
Station Type Date Time Source
PAFR METAR 2020/09/18 08:38 UTC NOAA

PAFR 180838Z AUTO 13014G30KT 10SM OVC070 13/02 A2947 RMK AO2 WSHFT 30 SLP985


Station Type Date Time Source
PAFR Decoded METAR 2020/09/18 08:38 UTC NOAA

Ft. Richardson / Bryant U. S. Army Heliport, Ak, AK, United States (PAFR) 61-16N 149-39W 115M
Sep 18, 2020 - 04:38 AM EDT / 2020.09.18 0838 UTC
Wind: from the SE (130 degrees) at 16 MPH (14 KT) gusting to 35 MPH (30 KT):0
Visibility: 10 mile(s):0
Sky conditions: overcast
Temperature: 55 F (13 C)
Dew Point: 35 F (2 C)
Relative Humidity: 47%
Pressure (altimeter): 29.47 in. Hg (997 hPa)
ob: PAFR 180838Z AUTO 13014G30KT 10SM OVC070 13/02 A2947 RMK AO2 WSHFT 30 SLP985
cycle: 8

Station Type Date Time Source
PAFR TAF UTC NOAA

Error!

Example: see airport list